Monday, October 22, 2018, 12:02 AM EDT
Back to Local

KCQX, Chatham Municipal Airport

Location: Chatham, MA, United States Lat: 41.683
Local Time: 12:02 AM EDT ( 4:02 GMT) Lon: -70
Time Zone: US/Eastern Elev: 68 ft

Show me the last for .
Show Decoded

2018-10-21 23:52 METAR KCQX 220352Z AUTO 31007G20KT 270V330 10SM BKN049 04/M05 A3006 RMK AO2
                 SLP180 T00441050 =
2018-10-21 22:52 METAR KCQX 220252Z AUTO 10SM BKN050 05/M06 A3005 RMK AO2 SLP176 T00501056 51026
                 =
2018-10-21 21:52 METAR KCQX 220152Z AUTO 33007G18KT 10SM OVC048 05/M04 A3003 RMK AO2 SLP172
                 T00501044 =
2018-10-21 20:52 METAR KCQX 220052Z AUTO 32007G19KT 290V350 10SM SCT050 05/M04 A3000 RMK AO2
                 SLP162 T00501044 =
2018-10-21 19:52 METAR KCQX 212352Z AUTO 33009G18KT 280V360 10SM OVC049 06/M04 A2997 RMK AO2
                 SLP151 T00561039 10072 20056 51042 =
2018-10-21 18:52 METAR KCQX 212252Z AUTO 32007G20KT 270V350 10SM OVC047 06/M03 A2994 RMK AO2
                 SLP141 T00561028 =
2018-10-21 17:52 METAR KCQX 212152Z AUTO 32011G17KT 10SM OVC047 06/M02 A2990 RMK AO2 SLP126
                 T00611022 =
2018-10-21 16:52 METAR KCQX 212052Z AUTO 32007G19KT 290V360 10SM BKN043 OVC050 07/M02 A2985 RMK
                 AO2 SLP108 T00671017 53035 =
2018-10-21 15:52 METAR KCQX 211952Z AUTO 31009G22KT 270V360 10SM OVC044 07/M01 A2981 RMK AO2
                 SLP095 T00671006 =
2018-10-21 14:52 METAR KCQX 211852Z AUTO 33008G21KT 280V010 10SM OVC042 07/01 A2976 RMK AO2
                 SLP080 T00720011 =
2018-10-21 13:52 METAR KCQX 211752Z AUTO 33007G17KT 10SM OVC036 07/02 A2974 RMK AO2 RAE08 SLP074
                 P0000 60040 T00720022 10100 20061 53018 =
2018-10-21 13:05 METAR KCQX 211705Z AUTO 34011G19KT 10SM -RA BKN030 OVC036 07/04 A2972 RMK AO2
                 P0000 T00670039 =
2018-10-21 12:52 METAR KCQX 211652Z AUTO 33007G19KT 290V360 9SM -RA BKN028 OVC035 07/04 A2972 RMK
                 AO2 SLP066 P0005 T00670039 =
2018-10-21 12:43 METAR KCQX 211643Z AUTO VRB06KT 6SM -RA BR OVC028 06/04 A2972 RMK AO2 P0005
                 T00610039 =
2018-10-21 12:25 METAR KCQX 211625Z AUTO 34009G15KT 310V010 8SM -RA SCT026 BKN035 OVC044 07/04
                 A2972 RMK AO2 P0002 T00670044 =
2018-10-21 11:52 METAR KCQX 211552Z AUTO VRB06KT 8SM -RA BKN022 OVC030 07/05 A2971 RMK AO2 SLP063
                 P0002 T00670050 =
2018-10-21 11:45 METAR KCQX 211545Z AUTO VRB06G16KT 10SM -RA BKN025 OVC032 07/05 A2971 RMK AO2
                 P0002 T00670050 =
2018-10-21 10:52 METAR KCQX 211452Z AUTO VRB05G18KT 10SM -RA FEW024 BKN041 OVC055 07/05 A2969 RMK
                 AO2 SLP055 P0003 60033 T00720050 51027 =
2018-10-21 09:52 METAR KCQX 211352Z AUTO 35007G16KT 300V030 6SM -RA BR FEW022 OVC037 07/05 A2967
                 RMK AO2 SLP048 P0010 T00720050 =
2018-10-21 08:52 METAR KCQX 211252Z AUTO VRB06G17KT 3SM RA BR FEW024 OVC033 08/06 A2965 RMK AO2
                 SLP040 P0020 T00830061 =
2018-10-21 08:26 METAR KCQX 211226Z AUTO VRB06KT 1 3/4SM RA BR FEW025 OVC036 09/07 A2963 RMK AO2
                 P0009 T00890072 =
2018-10-21 07:52 METAR KCQX 211152Z AUTO VRB04KT 5SM -RA BR FEW028 OVC045 10/08 A2961 RMK AO2
                 RAB02 SLP028 P0006 60006 70009 T01000078 10106 20061 53018 =
2018-10-21 07:45 METAR KCQX 211145Z AUTO VRB05KT 4SM -RA BR FEW029 BKN038 OVC046 10/08 A2961 RMK
                 AO2 RAB02 P0005 T01000078 =
2018-10-21 07:37 METAR KCQX 211137Z AUTO VRB04KT 2 1/2SM RA BR FEW027 BKN038 OVC046 10/08 A2960
                 RMK AO2 RAB02 P0004 T01000078 TSNO =
2018-10-21 06:52 METAR KCQX 211052Z AUTO VRB03KT 10SM SCT070 BKN090 OVC110 10/07 A2957 RMK AO2
                 SLP014 T01000067 =
2018-10-21 05:52 METAR KCQX 210952Z AUTO 00000KT 10SM CLR 08/06 A2956 RMK AO2 SLP011 T00780061 =
2018-10-21 04:52 METAR KCQX 210852Z AUTO 00000KT 10SM CLR 07/06 A2956 RMK AO2 SLP010 T00720061
                 55004 =
2018-10-21 03:52 METAR KCQX 210752Z AUTO 00000KT 10SM CLR 06/05 A2955 RMK AO2 SLP008 T00610050 =
2018-10-21 02:52 METAR KCQX 210652Z AUTO 00000KT 10SM CLR 07/05 A2954 RMK AO2 SLP005 T00670050 =
2018-10-21 01:52 METAR KCQX 210552Z AUTO 00000KT 10SM FEW085 08/06 A2957 RMK AO2 SLP013 T00780056
                 10133 20078 58013 =
2018-10-21 00:52 METAR KCQX 210452Z AUTO 30003KT 10SM OVC085 09/07 A2958 RMK AO2 SLP018 T00940072
                 401720089 =

Support USWX by starting your Amazon purchase here.